logo
App data

Crayon Physics Deluxe

Crayon Physics Deluxe is a 2D physics puzzle / sandbox game, in which you get to experience what it would be like if your drawings would be magically transformed into real physical objects. Solve puzzles with your artistic vision and creative use of physics.
Store | Hub | SteamDB | Site
Developer: Kloonigames Publisher: Kloonigames
Genre: Casual, Indie
Languages: English
Tags: Puzzle (104), Indie (102), Casual (97), Physics (84), Family Friendly (54), Singleplayer (51), Touch-Friendly (49), 2D (41), Cute (37), Relaxing (20), Sandbox (18), Level Editor (15), Simulation (13), Great Soundtrack (11), Hand-drawn (7)
Category: Single-player
Release date: Jan 7, 2009
Price: $19.99
Old userscore: 86% Metascore: 79%
Owners: 500,000 .. 1,000,000
Followers: 1,615
Peak concurrent players yesterday: 1
Playtime in the last 2 weeks: 00:24 (average) 00:24 (median)
Playtime total: 00:31 (average) 00:31 (median)

Steam Spy is still in beta, so expect major bugs.

Owners data:

Access restricted.

This feature is only available to users with special access rights. Sorry.

If you want to proceed, you need to register or log in first and then back Steam Spy on Patreon. Look for Indie or Pro pledge.

Don't forget to use the same email as on Steam Spy!

If you've recently backed Steam Spy on Patreon, please note, that it might take around 15 minutes for your access rights to sync. In most cases you'll need to re-login on Steam Spy too.

Audience in 2 weeks:

Access restricted.

This feature is only available to users with special access rights. Sorry.

If you want to proceed, you need to register or log in first and then back Steam Spy on Patreon. Look for Indie or Pro pledge.

Don't forget to use the same email as on Steam Spy!

If you've recently backed Steam Spy on Patreon, please note, that it might take around 15 minutes for your access rights to sync. In most cases you'll need to re-login on Steam Spy too.

Peak daily concurrent players:

CCU data courtesy of SteamDB. Used with permission.

Hourly concurrent players:

Daily Twitch stats:

Hourly Twitch stats:

Followers over time

Access restricted.

This feature is only available to users with special access rights. Sorry.

If you want to proceed, you need to register or log in first and then back Steam Spy on Patreon. Look for Indie or Pro pledge.

Don't forget to use the same email as on Steam Spy!

If you've recently backed Steam Spy on Patreon, please note, that it might take around 15 minutes for your access rights to sync. In most cases you'll need to re-login on Steam Spy too.

Views for top 50 videos on YouTube for this game:

Games similar to this one:

# Game Release date
Price
Score rank
(Userscore / Metascore)
Owners
Players
Playtime (Median)
1 The Treasures of Montezuma 4 Oct 9, 2013 $6.99N/A (N/A)20,000 .. 50,0000%00:00 (00:00)
2 Reach for the Sun Nov 7, 2013 $4.99N/A (N/A)0 .. 20,0000%00:00 (00:00)
3 Terra Mystica Jun 8, 2017 $14.99N/A (N/A)0 .. 20,0000%00:00 (00:00)
4 Magma Tsunami Jun 1, 2016 $0.99N/A (N/A)100,000 .. 200,0000%00:00 (00:00)
5 Rescue Team 5 Sep 30, 2015 $3.99N/A (N/A)0 .. 20,0000%00:00 (00:00)
6 Drizzlepath Mar 12, 2015 $0.99N/A (N/A)20,000 .. 50,0000%00:00 (00:00)
7 Beyond Gravity Sep 23, 2014 $1.99N/A (N/A)20,000 .. 50,0000%00:00 (00:00)
8 Pretentious Game May 20, 2014 $1.99N/A (N/A)50,000 .. 100,0000%00:00 (00:00)
9 PixelJunk Eden Feb 2, 2012 $9.99N/A (N/A/81%)100,000 .. 200,0000%00:00 (00:00)
10 Kombine Oct 14, 2016 $0.99N/A (N/A)20,000 .. 50,0000%00:00 (00:00)
11 Party Saboteurs: After Party Mar 31, 2016 $9.99N/A (N/A)0 .. 20,0000%00:00 (00:00)
12 Painters Guild Sep 1, 2015 $9.99N/A (N/A)20,000 .. 50,0000%00:00 (00:00)
13 Unhack Feb 20, 2014 $3.99N/A (N/A)20,000 .. 50,0000%00:00 (00:00)
14 Cyto Jul 10, 2014 $3.99N/A (N/A)20,000 .. 50,0000%00:00 (00:00)
15 Particulars Nov 19, 2014 FreeN/A (N/A/74%)0 .. 20,0000%00:00 (00:00)
16 CrossCells May 26, 2017 $2.99N/A (N/A)100,000 .. 200,0000%00:00 (00:00)
17 Frog Climbers Oct 6, 2016 $6.99N/A (N/A)0 .. 20,0000%00:00 (00:00)
18 Our Love Will Grow Dec 4, 2015 $4.99N/A (N/A)20,000 .. 50,0000%00:00 (00:00)
19 The Reject Demon: Toko Chapter 0 — Prelude May 9, 2015 $4.99N/A (N/A)0 .. 20,0000%00:00 (00:00)
20 This Starry Midnight We Make Jun 1, 2015 $9.99N/A (N/A)0 .. 20,0000%00:00 (00:00)
21 Strata May 29, 2014 $7.99N/A (N/A)20,000 .. 50,0000%00:00 (00:00)
22 Blocks That Matter Aug 19, 2011 $4.99N/A (N/A/72%)200,000 .. 500,0000%00:00 (00:00)
23 Luke Sidewalker Nov 25, 2016 FreeN/A (N/A)50,000 .. 100,0000%00:00 (00:00)
24 Blueprint Tycoon May 13, 2016 $2.99N/A (N/A)50,000 .. 100,0000%00:00 (00:00)
25 Job the Leprechaun Jul 31, 2015 $2.99N/A (N/A)20,000 .. 50,0000%00:00 (00:00)
26 Pixel Survivors May 5, 2016 $3.99N/A (N/A)50,000 .. 100,0000%00:00 (00:00)
27 Hidden in Plain Sight Jul 16, 2014 $5.99N/A (N/A)20,000 .. 50,0000%00:00 (00:00)
28 Dead Man's Draw Feb 6, 2014 $6.99N/A (N/A)50,000 .. 100,0000%00:00 (00:00)
29 CarX Drift Racing Online Nov 17, 2017 $14.99N/A (N/A)500,000 .. 1,000,00037.93%02:36 (03:38)
30 Dream Car Builder Sep 21, 2018 $9.99N/A (N/A)20,000 .. 50,0000%00:00 (00:00)
31 Bunny Hop League Apr 27, 2017 $5.99N/A (N/A)20,000 .. 50,0000%00:00 (00:00)
32 Farm Frenzy: Hurricane Season Apr 1, 2015 $6.99N/A (N/A)0 .. 20,0000%00:00 (00:00)
33 Cosmonautica Jul 31, 2015 $9.99N/A (N/A)200,000 .. 500,0000%00:00 (00:00)
34 Sokobond Jul 21, 2014 $9.99N/A (N/A/82%)20,000 .. 50,0000%00:00 (00:00)
35 Puzzler World 2 Oct 24, 2011 $4.99N/A (N/A)20,000 .. 50,0000%00:00 (00:00)
36 One Night Stand Nov 7, 2016 $2.99N/A (N/A)20,000 .. 50,0000%00:00 (00:00)
37 Burst Mar 14, 2016 N/AN/A (N/A)20,000 .. 50,0000%00:00 (00:00)
38 Fantastic Contraption Apr 5, 2016 $19.99N/A (N/A)0 .. 20,0000%00:00 (00:00)
39 Crash Drive 2 May 28, 2015 $4.99N/A (N/A)200,000 .. 500,0000%00:00 (00:00)
40 Point Perfect Jul 17, 2014 $4.99N/A (N/A)50,000 .. 100,0000%00:00 (00:00)
41 Girls Like Robots Feb 14, 2014 $6.99N/A (N/A)20,000 .. 50,0000%00:00 (00:00)
42 12 Labours of Hercules V: Kids of Hellas (Platinum Edition) Jun 17, 2016 $2.99N/A (N/A)0 .. 20,0000%00:00 (00:00)
43 Zipple World Jan 19, 2016 $4.99N/A (N/A)0 .. 20,0000%00:00 (00:00)
44 MOAI 2: Path to Another World Apr 11, 2015 $7.99N/A (N/A)0 .. 20,0000%00:00 (00:00)
45 The Treasures of Montezuma 3 May 19, 2011 $3.99N/A (N/A)0 .. 20,0000%00:00 (00:00)
46 Pressured Jul 18, 2014 $2.99N/A (N/A)200,000 .. 500,0000%00:00 (00:00)
47 Luxor Evolved Mar 1, 2012 $9.99N/A (N/A)0 .. 20,0000%00:00 (00:00)
48 Masky Dec 16, 2016 $0.99N/A (N/A)50,000 .. 100,0000%00:00 (00:00)
49 Forgotten, Not Lost - A Kinetic Novel Apr 2, 2016 $1.99N/A (N/A)20,000 .. 50,0000%00:00 (00:00)
50 Robot vs Birds Zombies Jun 1, 2013 $0.99N/A (N/A)100,000 .. 200,0000%00:00 (00:00)
51 Pixel Puzzles 2: Birds Feb 20, 2015 $4.99N/A (N/A)20,000 .. 50,0000%00:00 (00:00)
52 Super Lemonade Factory Mar 15, 2012 $0.99N/A (N/A)0 .. 20,0000%00:00 (00:00)
53 Grapple Mar 9, 2015 $6.99N/A (N/A)20,000 .. 50,0000%00:00 (00:00)
54 Beeftacular Aug 26, 2016 $2.99N/A (N/A)0 .. 20,0000%00:00 (00:00)
55 Surfingers Jan 27, 2016 $1.99N/A (N/A)50,000 .. 100,0000%00:00 (00:00)
56 Red Goblin: Cursed Forest May 15, 2015 $4.99N/A (N/A)0 .. 20,0000%00:00 (00:00)
57 Letter Quest: Grimm's Journey Nov 20, 2014 $7.99N/A (N/A/73%)100,000 .. 200,0000%00:00 (00:00)
58 The Good Life Nov 2, 2012 $9.99N/A (N/A)0 .. 20,0000%00:00 (00:00)
59 Gateways Sep 13, 2012 $4.99N/A (N/A/72%)50,000 .. 100,0000%00:00 (00:00)
60 iREC Jan 16, 2017 $0.5N/A (N/A)100,000 .. 200,0000%00:00 (00:00)
61 Melting Hearts: Our Love Will Grow 2 Apr 29, 2016 N/AN/A (N/A)20,000 .. 50,0000%00:00 (00:00)
62 Collisions Jul 28, 2015 $1.59N/A (N/A)20,000 .. 50,0000%00:00 (00:00)
63 Streets of Chaos Jan 23, 2015 N/AN/A (N/A)0 .. 20,0000%00:00 (00:00)
64 LogiGun Aug 1, 2012 $4.99N/A (N/A)0 .. 20,0000%00:00 (00:00)
65 Dominique Pamplemousse Mar 11, 2014 $0.99N/A (N/A/62%)20,000 .. 50,0000%00:00 (00:00)
66 Restaurant Empire II May 27, 2009 $19.99N/A (N/A/64%)0 .. 20,0000%00:00 (00:00)
67 The Housewife Aug 25, 2016 $4.99N/A (N/A)200,000 .. 500,0000%00:00 (00:00)
68 Sophie's Curse Mar 16, 2016 $4.99N/A (N/A)50,000 .. 100,0000%00:00 (00:00)
69 Power of Love Jul 21, 2015 $0.99N/A (N/A)20,000 .. 50,0000%00:00 (00:00)
70 Steam and Metal Feb 9, 2015 $4.99N/A (N/A)0 .. 20,0000%00:00 (00:00)
71 Automation - The Car Company Tycoon Game Mar 12, 2015 $29.99N/A (N/A)100,000 .. 200,00012.5%00:16 (00:05)
72 Storm Jun 27, 2013 $9.99N/A (N/A/63%)20,000 .. 50,0000%00:00 (00:00)
73 Access Denied Dec 16, 2016 $2.99N/A (N/A)20,000 .. 50,0000%00:00 (00:00)
74 Reptilian Rebellion Aug 8, 2016 $2.99N/A (N/A)50,000 .. 100,0000%00:00 (00:00)
75 The Deletion Jul 30, 2015 $1.99N/A (N/A)20,000 .. 50,00020%01:35 (00:47)
76 Racecraft Mar 4, 2016 FreeN/A (N/A)20,000 .. 50,0000%00:00 (00:00)
77 Metrocide Oct 20, 2014 $12.99N/A (N/A/68%)50,000 .. 100,0000%00:00 (00:00)
78 Tribloos 2 Jan 30, 2014 $4.99N/A (N/A)20,000 .. 50,0000%00:00 (00:00)
79 Windosill May 26, 2009 $2.99N/A (N/A)100,000 .. 200,0000%00:00 (00:00)
80 Strategy & Tactics: Dark Ages Aug 4, 2017 $14.99N/A (N/A)50,000 .. 100,0000%00:00 (00:00)
81 Night Blights Apr 15, 2016 $6.99N/A (N/A)0 .. 20,0000%00:00 (00:00)
82 Hired Ops Oct 21, 2016 FreeN/A (N/A)200,000 .. 500,0000%00:00 (00:00)
83 Goats on a Bridge Feb 6, 2015 $4.99N/A (N/A)0 .. 20,0000%00:00 (00:00)
84 Farm Frenzy 4 Aug 1, 2013 $6.99N/A (N/A)0 .. 20,0000%00:00 (00:00)
85 InFlux Sep 18, 2013 $9.99N/A (N/A)50,000 .. 100,0000%00:00 (00:00)
86 Pictopix Jan 5, 2017 $6.99N/A (N/A)50,000 .. 100,00033.33%00:28 (00:14)
87 Prehistoric Tales May 25, 2016 $2.99N/A (N/A)0 .. 20,0000%00:00 (00:00)
88 Lift It Jan 20, 2017 $4.99N/A (N/A)50,000 .. 100,0000%00:00 (00:00)
89 Chip's Challenge 2 May 28, 2015 $4.99N/A (N/A)20,000 .. 50,0000%00:00 (00:00)
90 A Good Snowman Is Hard To Build Feb 25, 2015 $9.99N/A (N/A)0 .. 20,0000%00:00 (00:00)
91 On Rusty Trails Jun 13, 2016 $12.99N/A (N/A/77%)0 .. 20,0000%00:00 (00:00)
92 Luxor: 5th Passage Jan 25, 2011 $9.99N/A (N/A)20,000 .. 50,0000%00:00 (00:00)
93 Farm Life: Natures Adventure Aug 8, 2016 $0.99N/A (N/A)50,000 .. 100,0000%00:00 (00:00)
94 Mind Games Mar 4, 2016 $2.99N/A (N/A)0 .. 20,0000%00:00 (00:00)
95 Fate Tectonics Sep 9, 2015 $4.99N/A (N/A)20,000 .. 50,0000%00:00 (00:00)
96 Marble Duel: Sphere-Matching Tactical Fantasy Nov 12, 2015 $14.99N/A (N/A)50,000 .. 100,0000%00:00 (00:00)
97 Spy Chameleon - RGB Agent Jun 11, 2014 $4.99N/A (N/A)20,000 .. 50,0000%00:00 (00:00)
98 Gravi Oct 8, 2013 $4.99N/A (N/A)0 .. 20,0000%00:00 (00:00)
99 Ninja Stealth 2 Jan 30, 2017 $0.99N/A (N/A)50,000 .. 100,0000%00:00 (00:00)
100 The Dolls: Reborn May 25, 2016 $4.99N/A (N/A)20,000 .. 50,0000%00:00 (00:00)
101 Cibele Nov 2, 2015 $8.99N/A (N/A/71%)50,000 .. 100,0000%00:00 (00:00)
102 Pester Jan 25, 2013 $0.99N/A (N/A)20,000 .. 50,0000%00:00 (00:00)
103 Quantum Rush Champions Dec 4, 2014 $9.99N/A (N/A)20,000 .. 50,0000%00:00 (00:00)
104 Sportsfriends Dec 19, 2014 $14.99N/A (N/A)0 .. 20,0000%00:00 (00:00)
105 Glowfish Sep 30, 2011 $9.99N/A (N/A)0 .. 20,0000%00:00 (00:00)
106 Dots eXtreme Jun 12, 2016 $1.99N/A (N/A)20,000 .. 50,0000%00:00 (00:00)
107 Overload May 31, 2018 $29.99N/A (N/A/74%)50,000 .. 100,0000%00:00 (00:00)
108 Koala Kids Jun 22, 2015 $1.99N/A (N/A)50,000 .. 100,0000%00:00 (00:00)
109 Castle Jan 7, 2015 $4.99N/A (N/A)20,000 .. 50,0000%00:00 (00:00)

Geography of active players over time, share:

Access restricted.

This feature is only available to users with special access rights. Sorry.

If you want to proceed, you need to register or log in first and then back Steam Spy on Patreon. Look for Indie or Pro pledge.

Don't forget to use the same email as on Steam Spy!

If you've recently backed Steam Spy on Patreon, please note, that it might take around 15 minutes for your access rights to sync. In most cases you'll need to re-login on Steam Spy too.

Tags over time:

Access restricted.

This feature is only available to users with special access rights. Sorry.

If you want to proceed, you need to register or log in first and then back Steam Spy on Patreon. Look for Indie or Pro pledge.

Don't forget to use the same email as on Steam Spy!

If you've recently backed Steam Spy on Patreon, please note, that it might take around 15 minutes for your access rights to sync. In most cases you'll need to re-login on Steam Spy too.

Owners of this game also own:

Access restricted.

This feature is only available to users with special access rights. Sorry.

If you want to proceed, you need to register or log in first and then back Steam Spy on Patreon. Look for Indie or Pro pledge.

Don't forget to use the same email as on Steam Spy!

If you've recently backed Steam Spy on Patreon, please note, that it might take around 15 minutes for your access rights to sync. In most cases you'll need to re-login on Steam Spy too.

Playtime distribution:

Access restricted.

This feature is only available to users with special access rights. Sorry.

If you want to proceed, you need to register or log in first and then back Steam Spy on Patreon. Look for Indie or Pro pledge.

Don't forget to use the same email as on Steam Spy!

If you've recently backed Steam Spy on Patreon, please note, that it might take around 15 minutes for your access rights to sync. In most cases you'll need to re-login on Steam Spy too.

Playtime (2 weeks):

Access restricted.

This feature is only available to users with special access rights. Sorry.

If you want to proceed, you need to register or log in first and then back Steam Spy on Patreon. Look for Indie or Pro pledge.

Don't forget to use the same email as on Steam Spy!

If you've recently backed Steam Spy on Patreon, please note, that it might take around 15 minutes for your access rights to sync. In most cases you'll need to re-login on Steam Spy too.

User reviews:

Login required.

Please register or log in to see this information.